Time;durP1;ratioP1;P1;durP2;ratioP2;P2;SDS_P1;SDS_P2;PMS_P1;PMS_P2;Temp;Humidity;BMP_temperature;BMP_pressure;BME280_temperature;BME280_humidity;BME280_pressure;Samples;Min_cycle;Max_cycle;Signal;HPM_P1;HPM_P2
2022/04/28 00:00:56;;;;;;;11.75;6.05;;;;;;;8.60;100.00;99126.75;4486280;32;20156;-72
2022/04/28 00:03:24;;;;;;;10.27;6.20;;;;;;;8.61;100.00;99128.41;4486106;31;20123;-72
2022/04/28 00:05:51;;;;;;;10.40;5.62;;;;;;;8.53;100.00;99136.00;4486263;31;20119;-72
2022/04/28 00:08:18;;;;;;;11.65;6.18;;;;;;;8.58;100.00;99135.62;4486197;31;20096;-72
2022/04/28 00:10:46;;;;;;;10.07;6.28;;;;;;;8.59;100.00;99130.31;4486081;31;20100;-72
2022/04/28 00:13:13;;;;;;;12.82;6.45;;;;;;;8.56;100.00;99133.16;4486232;31;20092;-72
2022/04/28 00:15:40;;;;;;;8.30;5.32;;;;;;;8.61;100.00;99124.97;4486050;31;20115;-72
2022/04/28 00:18:08;;;;;;;11.27;6.50;;;;;;;8.60;100.00;99131.13;4486298;31;20119;-72
2022/04/28 00:20:36;;;;;;;13.73;6.47;;;;;;;8.57;100.00;99124.37;4486171;31;20096;-72
2022/04/28 00:23:03;;;;;;;8.63;5.80;;;;;;;8.51;100.00;99133.50;4486061;31;20089;-72
2022/04/28 00:25:31;;;;;;;9.00;5.72;;;;;;;8.59;100.00;99138.13;4486318;31;20096;-72
2022/04/28 00:27:58;;;;;;;12.55;6.15;;;;;;;8.56;100.00;99133.16;4486044;31;20088;-72
2022/04/28 00:30:25;;;;;;;9.48;5.72;;;;;;;8.50;100.00;99136.22;4486106;31;20123;-72
2022/04/28 00:32:52;;;;;;;10.13;5.95;;;;;;;8.51;100.00;99133.50;4485901;32;20189;-72
2022/04/28 00:35:20;;;;;;;9.40;5.70;;;;;;;8.52;100.00;99134.31;4486627;31;20146;-72
2022/04/28 00:37:47;;;;;;;10.55;5.57;;;;;;;8.46;100.00;99134.78;4486243;31;20148;-72
2022/04/28 00:40:14;;;;;;;11.02;6.40;;;;;;;8.45;100.00;99138.34;4485868;31;20126;-72
2022/04/28 00:42:42;;;;;;;10.23;6.28;;;;;;;8.45;100.00;99130.53;4486290;31;20084;-72
2022/04/28 00:45:09;;;;;;;11.43;6.50;;;;;;;8.45;100.00;99143.56;4486091;31;20088;-72
2022/04/28 00:50:40;;;;;;;9.90;6.07;;;;;;;8.41;100.00;99139.47;4486222;31;20381;-72
2022/04/28 00:53:10;;;;;;;8.43;5.68;;;;;;;8.41;100.00;99139.47;4485110;32;20120;-72
2022/04/28 00:55:37;;;;;;;9.20;5.68;;;;;;;8.39;100.00;99143.97;4486211;31;20093;-72
2022/04/28 00:58:05;;;;;;;10.70;5.40;;;;;;;8.45;100.00;99148.78;4486026;31;20107;-72
2022/04/28 01:00:33;;;;;;;9.10;5.12;;;;;;;8.47;100.00;99146.87;4486053;31;20161;-72
2022/04/28 01:03:00;;;;;;;7.43;4.85;;;;;;;8.50;100.00;99144.06;4485759;32;20454;-72
2022/04/28 01:05:28;;;;;;;8.55;5.30;;;;;;;8.56;100.00;99138.38;4485604;31;20116;-72
2022/04/28 01:07:55;;;;;;;10.02;4.65;;;;;;;8.56;100.00;99146.19;4485808;31;20090;-72
2022/04/28 01:10:23;;;;;;;7.85;4.72;;;;;;;8.51;100.00;99143.94;4486040;31;20100;-72
2022/04/28 01:12:50;;;;;;;7.60;5.03;;;;;;;8.52;100.00;99135.16;4486018;31;20492;-72
2022/04/28 01:15:18;;;;;;;7.55;5.18;;;;;;;8.43;100.00;99135.81;4486222;31;20096;-72
2022/04/28 01:17:45;;;;;;;7.70;4.25;;;;;;;8.48;100.00;99136.34;4485992;32;20191;-72
2022/04/28 01:20:12;;;;;;;7.03;5.07;;;;;;;8.52;100.00;99131.69;4486148;31;20446;-72
2022/04/28 01:22:40;;;;;;;8.02;5.22;;;;;;;8.47;100.00;99126.00;4486035;31;20122;-72
2022/04/28 01:25:09;;;;;;;8.82;5.55;;;;;;;8.43;100.00;99137.59;4486039;31;20104;-72
2022/04/28 01:27:37;;;;;;;8.93;5.15;;;;;;;8.41;100.00;99126.44;4485833;31;20088;-72
2022/04/28 01:30:12;;;;;;;11.10;5.82;;;;;;;8.40;100.00;99122.16;4485609;31;20100;-72
2022/04/28 01:32:40;;;;;;;8.40;4.87;;;;;;;8.47;100.00;99126.00;4485957;31;20478;-72
2022/04/28 01:35:09;;;;;;;8.73;5.18;;;;;;;8.41;100.00;99124.66;4485681;31;20092;-72
2022/04/28 01:37:37;;;;;;;8.57;5.37;;;;;;;8.41;100.00;99121.22;4485913;31;20087;-72
2022/04/28 01:40:08;;;;;;;8.80;5.78;;;;;;;8.35;100.00;99123.31;4485689;31;20121;-72
2022/04/28 01:42:36;;;;;;;11.15;6.03;;;;;;;8.33;100.00;99121.78;4485930;31;20084;-72
2022/04/28 01:45:07;;;;;;;12.07;5.35;;;;;;;8.22;100.00;99119.13;4485817;32;20100;-72
2022/04/28 01:47:35;;;;;;;11.43;5.87;;;;;;;8.27;100.00;99119.63;4485529;31;20092;-72
2022/04/28 01:50:11;;;;;;;9.93;5.60;;;;;;;8.24;100.00;99118.06;4485861;31;20119;-72
2022/04/28 01:55:26;;;;;;;8.07;5.12;;;;;;;8.21;100.00;99117.47;4486072;31;20426;-72
2022/04/28 01:57:53;;;;;;;9.60;5.78;;;;;;;8.23;100.00;99121.62;4485605;31;20179;-72
2022/04/28 02:00:21;;;;;;;11.52;5.93;;;;;;;8.22;100.00;99114.75;4485682;32;20530;-72
2022/04/28 02:02:49;;;;;;;8.98;4.97;;;;;;;8.24;100.00;99123.28;4485549;32;20104;-72
2022/04/28 02:05:16;;;;;;;9.43;4.85;;;;;;;8.20;100.00;99124.47;4485809;31;20100;-72
2022/04/28 02:07:44;;;;;;;8.93;5.12;;;;;;;8.22;100.00;99132.16;4485591;31;20116;-72
2022/04/28 02:10:12;;;;;;;8.43;5.22;;;;;;;8.21;100.00;99127.91;4485131;31;20587;-72
2022/04/28 02:12:40;;;;;;;7.35;4.57;;;;;;;8.29;100.00;99131.59;4485470;31;20091;-72
2022/04/28 02:15:13;;;;;;;8.00;4.32;;;;;;;8.36;100.00;99134.59;4485703;32;20105;-72
2022/04/28 02:17:44;;;;;;;9.50;4.93;;;;;;;8.38;100.00;99137.09;4484815;31;20593;-72
2022/04/28 02:20:12;;;;;;;7.05;4.30;;;;;;;8.41;100.00;99126.44;4485535;31;20100;-72
2022/04/28 02:22:39;;;;;;;6.57;4.35;;;;;;;8.42;100.00;99125.47;4485427;32;20114;-72
2022/04/28 02:25:07;;;;;;;8.25;4.65;;;;;;;8.46;100.00;99130.41;4485534;32;20161;-72
2022/04/28 02:27:34;;;;;;;6.93;4.15;;;;;;;8.48;100.00;99130.28;4485535;31;20347;-72
2022/04/28 02:30:03;;;;;;;5.87;3.67;;;;;;;8.53;100.00;99120.31;4485115;31;20116;-72
2022/04/28 02:33:08;;;;;;;6.87;4.40;;;;;;;8.55;100.00;99120.19;4485544;31;20100;-72
2022/04/28 02:35:19;;;;;;;7.20;4.37;;;;;;;8.45;100.00;99112.25;4485386;31;20144;-72
2022/04/28 02:37:46;;;;;;;7.10;4.40;;;;;;;8.40;100.00;99116.94;4485679;31;20170;-72
2022/04/28 02:40:16;;;;;;;9.98;4.15;;;;;;;8.39;100.00;99113.50;4485149;32;20105;-72
2022/04/28 02:42:44;;;;;;;7.97;4.47;;;;;;;8.32;100.00;99115.72;4485389;31;20088;-72
2022/04/28 02:45:11;;;;;;;7.37;4.25;;;;;;;8.34;100.00;99118.22;4485094;31;20103;-72
2022/04/28 02:47:39;;;;;;;10.23;4.78;;;;;;;8.32;100.00;99125.34;4485584;31;20088;-72
2022/04/28 02:50:11;;;;;;;8.90;4.75;;;;;;;8.28;100.00;99113.44;4485188;31;20178;-72
2022/04/28 02:52:39;;;;;;;7.43;4.62;;;;;;;8.26;100.00;99116.16;4485562;32;20630;-72
2022/04/28 02:55:10;;;;;;;8.35;5.10;;;;;;;8.26;100.00;99113.56;4485144;31;20523;-72
2022/04/28 02:57:37;;;;;;;8.02;5.15;;;;;;;8.17;100.00;99112.47;4485365;32;20693;-72
2022/04/28 03:00:05;;;;;;;9.88;5.95;;;;;;;8.25;100.00;99114.53;4485443;32;20108;-72
2022/04/28 03:02:33;;;;;;;11.93;6.12;;;;;;;8.20;100.00;99114.00;4485318;31;20522;-72
2022/04/28 03:05:03;;;;;;;10.15;6.05;;;;;;;8.12;100.00;99116.37;4485112;31;20453;-72
2022/04/28 03:13:22;;;;;;;9.23;6.00;;;;;;;7.94;100.00;99121.97;4466904;32;20121;-72
2022/04/28 03:15:50;;;;;;;11.20;6.03;;;;;;;7.93;100.00;99115.13;4467054;32;20231;-72
2022/04/28 03:18:19;;;;;;;9.90;6.03;;;;;;;7.93;100.00;99117.72;4466961;32;20511;-73
2022/04/28 03:20:46;;;;;;;8.77;5.57;;;;;;;7.90;100.00;99124.91;4467009;32;20136;-72
2022/04/28 03:23:14;;;;;;;11.93;6.25;;;;;;;7.82;100.00;99125.47;4466654;32;20529;-72
2022/04/28 03:25:42;;;;;;;8.30;5.55;;;;;;;7.89;100.00;99128.47;4466848;32;20503;-72
2022/04/28 03:28:10;;;;;;;11.60;6.15;;;;;;;7.86;100.00;99133.91;4466654;32;20559;-72
2022/04/28 03:30:37;;;;;;;10.05;6.35;;;;;;;7.88;100.00;99127.66;4452861;32;20576;-72
2022/04/28 03:33:05;;;;;;;10.60;5.57;;;;;;;7.87;100.00;99131.19;4435688;32;20228;-72
2022/04/28 03:35:32;;;;;;;8.68;5.15;;;;;;;7.84;100.00;99136.62;4435774;32;20120;-72
2022/04/28 03:37:59;;;;;;;9.52;5.25;;;;;;;7.85;100.00;99127.88;4435459;32;20089;-72
2022/04/28 03:40:27;;;;;;;9.18;5.80;;;;;;;7.91;100.00;99129.22;4435604;32;20591;-72
2022/04/28 03:42:54;;;;;;;9.63;5.50;;;;;;;7.89;100.00;99136.28;4435333;32;20105;-72
2022/04/28 03:45:21;;;;;;;9.52;5.70;;;;;;;7.86;100.00;99134.75;4435622;32;20105;-72
2022/04/28 03:47:49;;;;;;;10.05;5.75;;;;;;;7.88;100.00;99130.25;4458276;32;20108;-72
2022/04/28 03:50:17;;;;;;;10.15;5.37;;;;;;;7.89;100.00;99134.53;4468804;32;20155;-72
2022/04/28 03:52:44;;;;;;;10.10;5.87;;;;;;;7.90;100.00;99131.00;4468877;32;20097;-72
2022/04/28 03:55:12;;;;;;;9.43;5.93;;;;;;;7.92;100.00;99144.75;4468721;32;20522;-73
2022/04/28 03:57:40;;;;;;;12.15;5.72;;;;;;;7.91;100.00;99145.69;4468783;32;20115;-72
2022/04/28 04:00:08;;;;;;;8.77;5.15;;;;;;;7.82;100.00;99147.16;4468580;32;20123;-73
2022/04/28 04:02:41;;;;;;;11.73;6.28;;;;;;;7.83;100.00;99150.62;4476003;32;20118;-72
2022/04/28 04:05:10;;;;;;;9.43;5.45;;;;;;;7.85;100.00;99148.72;4484453;31;20115;-73
2022/04/28 04:07:41;;;;;;;11.50;6.05;;;;;;;7.85;100.00;99148.72;4484693;31;20092;-72
2022/04/28 04:10:10;;;;;;;9.20;5.20;;;;;;;7.96;100.00;99150.56;4484396;31;20120;-72
2022/04/28 04:12:38;;;;;;;10.68;6.32;;;;;;;7.97;100.00;99150.44;4484491;31;20101;-72
2022/04/28 04:15:08;;;;;;;11.30;5.68;;;;;;;7.98;100.00;99151.31;4484257;31;20119;-72
2022/04/28 04:17:45;;;;;;;8.07;4.82;;;;;;;8.07;100.00;99153.25;4484471;31;20123;-72
2022/04/28 04:20:13;;;;;;;8.18;5.35;;;;;;;8.21;100.00;99160.06;4483912;31;20367;-72
2022/04/28 04:22:42;;;;;;;11.27;4.87;;;;;;;8.19;100.00;99167.19;4484375;31;20088;-72
2022/04/28 04:25:09;;;;;;;11.95;5.60;;;;;;;8.22;100.00;99158.28;4483014;32;20092;-72
2022/04/28 04:27:37;;;;;;;8.88;4.80;;;;;;;8.28;100.00;99165.66;4482318;32;20115;-72
2022/04/28 04:32:55;;;;;;;8.20;5.60;;;;;;;8.37;100.00;99161.53;4482227;31;20092;-72
2022/04/28 04:35:24;;;;;;;10.35;5.45;;;;;;;8.42;100.00;99162.87;4482394;31;20118;-72
2022/04/28 04:37:52;;;;;;;9.10;5.40;;;;;;;8.37;100.00;99161.53;4481919;31;20104;-72
2022/04/28 04:40:20;;;;;;;8.73;5.15;;;;;;;8.53;100.00;99167.31;4482285;31;20111;-71
2022/04/28 04:42:48;;;;;;;9.00;5.05;;;;;;;8.48;100.00;99169.44;4486161;31;20157;-72
2022/04/28 04:45:15;;;;;;;8.70;5.03;;;;;;;8.50;100.00;99167.56;4485837;31;20100;-71
2022/04/28 04:47:43;;;;;;;7.75;5.18;;;;;;;8.52;100.00;99171.72;4486212;31;20108;-72
2022/04/28 04:50:11;;;;;;;9.30;5.80;;;;;;;8.56;100.00;99164.47;4485827;31;20159;-71
2022/04/28 04:52:38;;;;;;;8.57;5.12;;;;;;;8.46;100.00;99173.94;4486389;31;20108;-71
2022/04/28 04:55:06;;;;;;;9.52;5.60;;;;;;;8.41;100.00;99173.44;4485543;31;20085;-71
2022/04/28 04:57:37;;;;;;;9.75;6.00;;;;;;;8.45;100.00;99177.50;4486042;31;20565;-71
2022/04/28 05:00:05;;;;;;;11.45;5.62;;;;;;;8.40;100.00;99177.78;4483953;31;20381;-71
2022/04/28 05:02:34;;;;;;;9.23;5.50;;;;;;;8.45;100.00;99182.75;4484001;32;20092;-71
2022/04/28 05:05:02;;;;;;;10.25;5.93;;;;;;;8.36;100.00;99181.59;4481058;32;21047;-71
2022/04/28 05:07:30;;;;;;;8.15;5.30;;;;;;;8.43;100.00;99179.34;4480787;31;20462;-71
2022/04/28 05:09:58;;;;;;;9.05;5.78;;;;;;;8.49;100.00;99189.38;4481168;32;20105;-71
2022/04/28 05:12:25;;;;;;;10.38;5.53;;;;;;;8.56;100.00;99187.97;4483639;32;20096;-71
2022/04/28 05:14:53;;;;;;;9.98;5.50;;;;;;;8.56;100.00;99190.59;4483822;31;20179;-71
2022/04/28 05:17:20;;;;;;;11.23;5.22;;;;;;;8.65;100.00;99184.69;4484699;31;20092;-71
2022/04/28 05:19:48;;;;;;;11.00;5.65;;;;;;;8.69;100.00;99193.97;4475479;31;20108;-71
2022/04/28 05:22:17;;;;;;;9.27;5.43;;;;;;;8.70;100.00;99195.63;4481782;32;20239;-71
2022/04/28 05:24:45;;;;;;;8.73;5.35;;;;;;;8.68;100.00;99194.91;4483913;31;20494;-71
2022/04/28 05:27:14;;;;;;;9.80;6.35;;;;;;;8.68;100.00;99194.91;4483979;31;20100;-72
2022/04/28 05:29:41;;;;;;;9.82;6.32;;;;;;;8.72;100.00;99197.28;4481400;31;20093;-72
2022/04/28 05:32:10;;;;;;;10.43;5.70;;;;;;;8.77;100.00;99197.78;4485496;31;20100;-72
2022/04/28 05:34:37;;;;;;;8.60;4.85;;;;;;;8.91;100.00;99204.59;4476604;31;20111;-71
2022/04/28 05:37:06;;;;;;;11.60;6.07;;;;;;;8.99;100.00;99208.28;4470418;32;20092;-72
2022/04/28 05:39:33;;;;;;;10.52;5.93;;;;;;;8.91;100.00;99209.81;4478109;32;20108;-71
2022/04/28 05:42:01;;;;;;;8.57;5.32;;;;;;;8.95;100.00;99214.69;4474733;32;20113;-71
2022/04/28 05:47:14;;;;;;;9.50;5.60;;;;;;;9.20;100.00;99207.59;4485831;31;20079;-71
2022/04/28 05:49:42;;;;;;;8.57;5.40;;;;;;;9.16;100.00;99214.84;4483940;31;20096;-71
2022/04/28 05:52:09;;;;;;;9.23;5.90;;;;;;;9.18;100.00;99212.09;4477938;31;20155;-71
2022/04/28 05:54:36;;;;;;;10.63;5.93;;;;;;;9.27;100.00;99219.25;4483016;32;20379;-72
2022/04/28 05:57:04;;;;;;;10.55;5.93;;;;;;;9.23;100.00;99226.50;4483307;32;20182;-71
2022/04/28 05:59:31;;;;;;;9.05;6.18;;;;;;;9.48;100.00;99219.38;4484740;31;20100;-71
2022/04/28 06:02:00;;;;;;;10.45;5.72;;;;;;;9.46;100.00;99215.22;4483995;31;20155;-72
2022/04/28 06:04:28;;;;;;;9.07;5.10;;;;;;;9.49;100.00;99222.81;4444518;31;1021798;-71
2022/04/28 06:06:56;;;;;;;8.10;5.43;;;;;;;9.50;100.00;99227.09;4479885;32;20084;-72
2022/04/28 06:09:24;;;;;;;13.95;5.70;;;;;;;9.46;100.00;99226.50;4481514;31;20159;-72
2022/04/28 06:11:52;;;;;;;8.20;4.82;;;;;;;9.47;100.00;99233.41;4472490;31;20088;-72
2022/04/28 06:14:19;;;;;;;8.85;5.03;;;;;;;9.46;100.00;99228.28;4478796;31;20105;-71
2022/04/28 06:16:48;;;;;;;9.18;5.53;;;;;;;9.39;100.00;99233.97;4481451;31;20796;-72
2022/04/28 06:19:18;;;;;;;6.90;5.00;;;;;;;9.31;100.00;99238.97;4485287;31;20155;-72
2022/04/28 06:21:48;;;;;;;7.05;4.80;;;;;;;9.22;100.00;99239.69;4481675;31;20855;-72
2022/04/28 06:24:15;;;;;;;8.75;4.82;;;;;;;9.18;100.00;99246.09;4469870;32;20081;-72
2022/04/28 06:26:42;;;;;;;8.50;5.37;;;;;;;9.17;100.00;99247.03;4483710;32;20651;-72
2022/04/28 06:29:10;;;;;;;11.93;5.47;;;;;;;9.33;100.00;99246.72;4479577;32;20179;-72
2022/04/28 06:31:38;;;;;;;8.25;5.78;;;;;;;9.38;100.00;99240.16;4481082;31;20100;-72
2022/04/28 06:34:07;;;;;;;8.00;5.80;;;;;;;9.44;100.00;99241.47;4474488;32;20958;-71
2022/04/28 06:36:35;;;;;;;9.07;5.25;;;;;;;9.57;100.00;99250.03;4475231;31;20749;-72
2022/04/28 06:39:02;;;;;;;8.10;5.32;;;;;;;9.75;100.00;99249.56;4476812;31;20100;-72
2022/04/28 06:41:30;;;;;;;8.15;5.22;;;;;;;9.59;100.00;99244.69;4472568;32;20100;-71
2022/04/28 06:43:57;;;;;;;10.88;5.47;;;;;;;9.63;100.00;99251.38;4477600;31;20167;-72
2022/04/28 06:46:30;;;;;;;8.85;5.47;;;;;;;9.66;100.00;99253.75;4484312;31;20118;-72
2022/04/28 06:49:01;;;;;;;9.13;4.87;;;;;;;9.72;100.00;99253.25;4481203;31;20124;-72
2022/04/28 06:51:32;;;;;;;10.65;5.12;;;;;;;9.82;100.00;99245.50;4484432;32;20164;-72
2022/04/28 06:54:00;;;;;;;7.87;4.50;;;;;;;9.77;100.00;99251.09;4477684;31;20143;-72
2022/04/28 06:56:29;;;;;;;7.12;5.12;;;;;;;9.78;100.00;99249.34;4472855;32;20442;-73
2022/04/28 06:58:58;;;;;;;7.15;4.93;;;;;;;9.97;99.84;99246.09;4471528;32;20123;-71
2022/04/28 07:01:26;;;;;;;8.05;5.12;;;;;;;10.02;98.12;99251.81;4474464;31;20108;-73
2022/04/28 07:04:02;;;;;;;8.27;4.87;;;;;;;9.98;98.05;99254.75;4476137;31;20105;-73
2022/04/28 07:06:29;;;;;;;8.55;5.00;;;;;;;10.08;100.00;99253.94;4475480;32;20144;-73
2022/04/28 07:08:56;;;;;;;8.32;5.15;;;;;;;10.11;99.74;99251.06;4484893;31;20096;-72
2022/04/28 07:11:24;;;;;;;8.80;5.70;;;;;;;10.25;99.37;99260.44;4480333;31;20108;-72
2022/04/28 07:13:53;;;;;;;8.00;5.32;;;;;;;10.23;99.37;99259.72;4485240;31;20119;-72
2022/04/28 07:16:22;;;;;;;9.82;5.75;;;;;;;10.31;99.85;99259.13;4475916;32;20108;-71
2022/04/28 07:18:51;;;;;;;10.68;6.80;;;;;;;10.39;100.00;99254.13;4481912;31;20137;-72
2022/04/28 07:21:19;;;;;;;9.75;6.43;;;;;;;10.26;100.00;99261.25;4483127;32;20101;-72
2022/04/28 07:23:46;;;;;;;10.40;6.28;;;;;;;10.37;100.00;99263.03;4469708;31;20113;-72
2022/04/28 07:26:14;;;;;;;8.70;5.90;;;;;;;10.23;100.00;99261.50;4481652;32;20096;-70
2022/04/28 07:28:42;;;;;;;9.70;6.37;;;;;;;10.21;100.00;99256.41;4480410;31;20145;-71
2022/04/28 07:31:10;;;;;;;11.20;6.97;;;;;;;10.32;100.00;99266.00;4479772;31;20102;-72
2022/04/28 07:33:45;;;;;;;11.02;6.78;;;;;;;10.29;100.00;99268.87;4470557;31;20093;-71
2022/04/28 07:36:25;;;;;;;11.70;6.82;;;;;;;10.44;100.00;99277.31;4473951;32;20115;-72
2022/04/28 07:39:12;;;;;;;11.70;6.03;;;;;;;10.60;100.00;99271.69;4476174;32;20131;-71
2022/04/28 07:41:42;;;;;;;10.45;6.87;;;;;;;10.62;100.00;99277.63;4482171;31;20088;-74
2022/04/28 07:44:09;;;;;;;8.60;6.37;;;;;;;10.98;100.00;99276.37;4482007;31;20102;-72
2022/04/28 07:46:38;;;;;;;11.07;7.62;;;;;;;11.15;100.00;99277.59;4467749;31;20122;-72
2022/04/28 07:49:05;;;;;;;11.15;6.78;;;;;;;11.28;99.92;99279.19;4472859;32;20625;-72
2022/04/28 07:51:33;;;;;;;10.73;6.43;;;;;;;11.50;100.00;99286.91;4477360;32;20165;-72
2022/04/28 07:54:03;;;;;;;10.45;6.80;;;;;;;11.65;98.26;99294.44;4477389;31;20101;-71
2022/04/28 07:56:31;;;;;;;10.20;6.80;;;;;;;11.78;98.22;99286.34;4471450;31;20100;-71
2022/04/28 07:58:59;;;;;;;11.63;7.15;;;;;;;11.96;97.60;99281.31;4478983;31;20119;-72
2022/04/28 08:01:46;;;;;;;12.35;7.87;;;;;;;12.21;98.04;99285.28;4473329;32;20092;-72
2022/04/28 08:04:14;;;;;;;11.00;7.05;;;;;;;12.57;95.54;99285.63;4481058;32;20441;-73
2022/04/28 08:06:42;;;;;;;11.63;7.00;;;;;;;12.90;93.89;99288.78;4474192;31;20503;-72
2022/04/28 08:09:09;;;;;;;13.70;6.78;;;;;;;12.81;95.46;99306.25;4482474;31;20126;-72
2022/04/28 08:11:40;;;;;;;12.18;7.10;;;;;;;12.43;95.55;99294.72;4472480;32;20156;-72
2022/04/28 08:14:07;;;;;;;11.80;6.43;;;;;;;12.55;93.66;99295.41;4486645;31;20150;-72
2022/04/28 08:16:37;;;;;;;10.35;6.68;;;;;;;12.55;91.70;99301.53;4469009;32;20100;-72
2022/04/28 08:19:05;;;;;;;9.30;6.43;;;;;;;12.68;91.59;99305.69;4483347;32;20116;-72
2022/04/28 08:21:34;;;;;;;12.70;6.75;;;;;;;12.72;89.12;99307.91;4485224;32;20153;-72
2022/04/28 08:24:01;;;;;;;11.10;6.80;;;;;;;12.63;87.86;99302.63;4478776;31;20096;-72
2022/04/28 08:26:29;;;;;;;12.10;7.53;;;;;;;12.77;89.61;99299.59;4478375;32;20095;-71
2022/04/28 08:28:56;;;;;;;11.30;7.62;;;;;;;12.91;88.23;99309.72;4475982;32;20116;-70
2022/04/28 08:31:24;;;;;;;10.95;6.90;;;;;;;12.99;90.57;99308.16;4479260;32;20597;-71
2022/04/28 08:33:51;;;;;;;11.35;6.87;;;;;;;13.48;87.40;99308.97;4469754;32;20430;-71
2022/04/28 08:36:20;;;;;;;9.80;6.50;;;;;;;13.34;82.71;99319.91;4478756;32;20104;-71
2022/04/28 08:38:48;;;;;;;8.88;6.43;;;;;;;13.58;85.05;99311.56;4480799;31;20142;-71
2022/04/28 08:41:26;;;;;;;13.57;6.50;;;;;;;14.10;85.07;99309.28;4482738;31;20171;-71
2022/04/28 08:43:59;;;;;;;8.40;5.95;;;;;;;14.35;78.52;99307.78;4483312;31;20413;-71
2022/04/28 08:49:14;;;;;;;9.38;6.10;;;;;;;14.31;76.43;99316.13;4477971;31;20096;-71
2022/04/28 08:51:47;;;;;;;14.38;5.32;;;;;;;14.47;78.76;99321.53;4480420;32;20119;-71
2022/04/28 08:54:14;;;;;;;10.82;6.12;;;;;;;14.52;74.34;99306.13;4485045;31;20100;-70
2022/04/28 08:56:42;;;;;;;10.77;5.22;;;;;;;14.84;75.41;99311.91;4484400;31;20091;-72
2022/04/28 08:59:10;;;;;;;7.28;5.15;;;;;;;14.93;74.08;99312.78;4480369;31;20596;-72
2022/04/28 09:01:37;;;;;;;9.40;6.85;;;;;;;14.71;73.45;99318.34;4481423;31;20100;-72
2022/04/28 09:04:10;;;;;;;9.55;6.18;;;;;;;14.76;75.76;99322.37;4475145;31;20176;-72
2022/04/28 09:06:41;;;;;;;8.68;6.35;;;;;;;14.25;75.07;99319.34;4473111;32;20123;-72
2022/04/28 09:09:12;;;;;;;7.87;5.93;;;;;;;14.26;75.18;99336.81;4482789;32;20100;-72
2022/04/28 09:11:45;;;;;;;10.00;6.57;;;;;;;14.57;75.15;99321.50;4480737;32;20088;-72
2022/04/28 09:14:20;;;;;;;10.93;6.90;;;;;;;14.96;74.03;99329.16;4478880;31;20092;-72
2022/04/28 09:17:03;;;;;;;9.18;5.93;;;;;;;15.21;74.27;99329.34;4480221;31;20500;-72
2022/04/28 09:19:35;;;;;;;9.10;6.28;;;;;;;15.21;76.06;99324.06;4473448;32;20096;-72
2022/04/28 09:22:08;;;;;;;12.95;6.20;;;;;;;15.47;71.68;99323.28;4479090;32;20126;-72
2022/04/28 09:24:38;;;;;;;12.90;6.03;;;;;;;15.40;69.89;99326.53;4480459;31;20092;-72
2022/04/28 09:27:07;;;;;;;9.07;6.07;;;;;;;15.53;71.19;99322.66;4472005;32;20440;-72
2022/04/28 09:29:43;;;;;;;6.78;5.20;;;;;;;15.67;69.85;99319.44;4480432;31;20155;-72
2022/04/28 09:32:15;;;;;;;11.30;6.82;;;;;;;15.82;71.96;99334.72;4477873;31;20119;-72
2022/04/28 09:35:08;;;;;;;10.07;6.80;;;;;;;15.79;71.26;99331.44;4472335;31;20089;-72
2022/04/28 09:37:39;;;;;;;11.40;6.75;;;;;;;15.78;72.76;99327.12;4472449;32;20156;-72
2022/04/28 09:42:54;;;;;;;10.38;6.53;;;;;;;15.41;69.54;99330.84;4473862;31;20088;-72
2022/04/28 09:45:25;;;;;;;8.85;6.35;;;;;;;15.55;70.95;99336.53;4474490;32;20156;-71
2022/04/28 09:48:03;;;;;;;8.10;5.82;;;;;;;15.60;69.27;99331.59;4480145;32;20105;-71
2022/04/28 09:50:34;;;;;;;8.32;6.43;;;;;;;15.47;67.98;99345.22;4473415;32;20503;-69
2022/04/28 09:53:05;;;;;;;9.13;6.45;;;;;;;15.76;67.64;99344.06;4477052;32;20100;-70
2022/04/28 09:55:37;;;;;;;9.88;6.03;;;;;;;15.73;69.01;99339.09;4471319;32;20157;-71
2022/04/28 09:58:07;;;;;;;7.97;5.10;;;;;;;15.88;68.84;99347.31;4482318;31;20113;-71
2022/04/28 10:00:35;;;;;;;7.75;5.57;;;;;;;16.13;66.57;99333.22;4483438;31;20105;-71
2022/04/28 10:03:03;;;;;;;8.40;6.10;;;;;;;16.38;68.73;99343.06;4480064;31;20101;-71
2022/04/28 10:05:31;;;;;;;9.25;5.30;;;;;;;16.68;65.03;99336.38;4475418;32;20118;-72
2022/04/28 10:07:59;;;;;;;9.80;5.15;;;;;;;16.61;62.27;99330.09;4478231;32;20092;-72
2022/04/28 10:10:26;;;;;;;7.10;5.28;;;;;;;16.57;63.95;99337.50;4484273;32;20157;-72
2022/04/28 10:12:55;;;;;;;8.90;4.75;;;;;;;16.32;63.20;99334.78;4472147;32;20124;-72
2022/04/28 10:15:24;;;;;;;8.50;5.00;;;;;;;16.61;61.43;99332.72;4474760;32;20088;-72
2022/04/28 10:17:55;;;;;;;6.87;4.95;;;;;;;16.57;60.42;99326.91;4485224;31;20430;-72
2022/04/28 10:20:32;;;;;;;6.80;4.72;;;;;;;16.44;61.61;99329.19;4478603;31;20447;-72
2022/04/28 10:32:22;;;;;;;8.57;4.68;;;;;;;16.38;62.11;99330.69;4498996;31;20165;-72
2022/04/28 10:35:06;;;;;;;7.20;5.43;;;;;;;17.15;59.00;99330.50;4480135;32;20114;-73
2022/04/28 10:37:45;;;;;;;7.47;5.12;;;;;;;17.32;62.26;99325.16;4471815;32;20101;-73
2022/04/28 10:40:16;;;;;;;9.93;5.25;;;;;;;16.97;59.65;99335.97;4480311;32;20740;-72
2022/04/28 10:42:47;;;;;;;7.43;5.18;;;;;;;17.49;58.31;99331.31;4482613;31;20111;-73
2022/04/28 10:45:20;;;;;;;6.35;4.57;;;;;;;17.53;59.44;99327.31;4478803;32;20119;-72
2022/04/28 10:47:47;;;;;;;6.50;4.50;;;;;;;17.37;57.03;99328.16;4482127;31;20142;-72
2022/04/28 10:50:22;;;;;;;7.72;4.90;;;;;;;17.43;56.42;99327.50;4485856;31;20111;-72
2022/04/28 10:53:16;;;;;;;8.70;4.85;;;;;;;17.37;56.51;99331.63;4479133;32;20096;-72
2022/04/28 10:55:44;;;;;;;7.32;4.87;;;;;;;17.20;58.85;99335.31;4474288;32;20130;-70
2022/04/28 10:58:26;;;;;;;7.00;4.87;;;;;;;17.50;57.44;99340.88;4480098;31;20096;-71
2022/04/28 11:00:58;;;;;;;7.28;4.57;;;;;;;17.41;57.90;99328.66;4476255;32;20167;-72
2022/04/28 11:04:03;;;;;;;5.62;4.47;;;;;;;17.21;56.49;99339.59;4478999;31;20506;-72
2022/04/28 11:06:38;;;;;;;6.53;4.78;;;;;;;17.35;56.01;99338.94;4477962;32;20484;-72
2022/04/28 11:09:06;;;;;;;9.80;4.72;;;;;;;17.26;54.32;99339.94;4482369;32;20119;-72
2022/04/28 11:11:46;;;;;;;6.00;4.62;;;;;;;16.96;57.19;99341.41;4469359;32;20179;-72
2022/04/28 11:14:14;;;;;;;6.70;4.53;;;;;;;16.91;56.40;99341.91;4479050;31;20123;-72
2022/04/28 11:16:42;;;;;;;6.35;4.65;;;;;;;16.95;56.50;99345.03;4478645;32;20131;-72
2022/04/28 11:19:11;;;;;;;6.93;4.93;;;;;;;16.85;57.37;99351.28;4476733;31;20183;-72
2022/04/28 11:21:42;;;;;;;7.53;4.60;;;;;;;16.72;57.87;99353.56;4470925;32;20126;-72
2022/04/28 11:24:10;;;;;;;9.10;5.22;;;;;;;16.78;56.96;99350.28;4478380;32;20104;-71
2022/04/28 11:26:38;;;;;;;7.40;4.80;;;;;;;16.93;59.09;99352.31;4480072;32;20484;-71
2022/04/28 11:29:09;;;;;;;6.78;4.47;;;;;;;16.77;55.91;99353.09;4479257;32;20160;-72
2022/04/28 11:31:46;;;;;;;6.35;4.80;;;;;;;17.06;56.36;99346.53;4483745;31;21037;-71
2022/04/28 11:34:13;;;;;;;6.30;4.70;;;;;;;16.89;59.09;99351.81;4475993;32;20100;-72
2022/04/28 11:36:41;;;;;;;5.55;4.25;;;;;;;17.00;55.54;99353.31;4484219;31;20477;-72
2022/04/28 11:39:10;;;;;;;10.43;4.80;;;;;;;17.09;54.80;99362.91;4483877;31;20152;-72
2022/04/28 11:41:40;;;;;;;5.62;4.18;;;;;;;17.41;54.10;99355.97;4475007;31;20092;-72
2022/04/28 11:44:10;;;;;;;6.37;4.80;;;;;;;17.87;54.33;99356.22;4483149;32;20552;-72
2022/04/28 11:46:50;;;;;;;6.72;4.62;;;;;;;18.40;54.35;99359.19;4483996;31;20088;-72
2022/04/28 11:49:18;;;;;;;5.15;3.90;;;;;;;18.30;54.07;99366.53;4483135;32;20151;-72
2022/04/28 11:51:46;;;;;;;4.87;3.95;;;;;;;18.26;54.01;99360.75;4466637;32;20449;-72
2022/04/28 11:54:25;;;;;;;6.35;3.90;;;;;;;18.12;51.58;99372.06;4468691;32;20135;-70
2022/04/28 11:57:09;;;;;;;5.47;4.10;;;;;;;17.75;52.38;99368.19;4480074;32;20548;-71
2022/04/28 11:59:38;;;;;;;7.97;4.28;;;;;;;17.79;52.94;99358.91;4481185;31;20091;-71
2022/04/28 12:02:30;;;;;;;5.82;3.53;;;;;;;17.51;54.14;99367.22;4481908;31;20131;-72
2022/04/28 12:05:05;;;;;;;6.75;3.70;;;;;;;17.39;52.20;99352.66;4475422;32;20536;-71
2022/04/28 12:07:36;;;;;;;4.87;3.70;;;;;;;17.18;50.19;99364.59;4475389;32;20092;-72
2022/04/28 12:15:37;;;;;;;3.80;3.00;;;;;;;17.26;50.54;99368.22;4468780;32;20111;-72
2022/04/28 12:21:06;;;;;;;5.97;3.50;;;;;;;17.31;49.86;99372.03;4483410;31;20791;-72